CheckWX is a tool to help pilots better visualize weather data.  It is not intended as a substitute for an official pre-flight weather briefing.

09:24:08 UTC

KMDQ METAR
Huntsville Executive Tom Sharp Jr Field Airport
Huntsville, Alabama, USA
Current

29 mins ago

KMDQ 070855Z AUTO 32003KT 10SM CLR 04/03 A3023 RMK A02 T00380033
Observed
Dec-7 @ 08:55 UTC
Wind
  • 320° at 3 KTS
Visibility
10 SM
Flight Rules
VFR
Cloud Levels
  • Clear skies
Temperature
C / 39°F
Dewpoint
C / 37°F
Humidity
93%
Altimeter
30.23" Hg
Pressure
1023.72 hPa
Previous

49 mins ago

KMDQ 070835Z AUTO 31003KT 10SM CLR 04/04 A3023 RMK A02 T00430038
Observed
Dec-7 @ 08:35 UTC
Wind
  • 310° at 3 KTS
Visibility
10 SM
Flight Rules
VFR
Cloud Levels
  • Clear skies
Temperature
C / 39°F
Dewpoint
C / 39°F
Humidity
100%
Altimeter
30.23" Hg
Pressure
1023.72 hPa
Previous

1 hour ago

KMDQ 070815Z AUTO 00000KT 10SM CLR 04/04 A3023 RMK A02 T00430037
Observed
Dec-7 @ 08:15 UTC
Visibility
10 SM
Flight Rules
VFR
Cloud Levels
  • Clear skies
Temperature
C / 39°F
Dewpoint
C / 39°F
Humidity
100%
Altimeter
30.23" Hg
Pressure
1023.72 hPa